»·PEaware :: N603PM KPRC-KFMN

N603PM :: KPRC-KFMN

FLIGHT INFORMATION

Flight Status: Arrived
Operator: Privately registered:
United States
More flights under this callsign
Pilot: Charles M. (41337)
Aircraft: BEECH AIRCRAFT BARON
(BE58)
More flights by this aircraft type
Origin: KPRC Love
United States
Destination: KFMN Four Corners Regl
United States
More flights between these airports :: More routes between these airports
Route:
File this flight plan on PilotEdge
Remarks:
Altitude:
(Current/Filed)
9,500ft
Speed:
(Current/Filed)
180kts
Departed: 20-Aug-23 07:38 PM
Arrived: 20-Aug-23 09:02 PM
Distance/Time
Traveled:
240nm/1:24
Distance/Time
To Go:
Arrived

Flight Plot

Page will automatically refresh every two minutes.

Flight plan parsing failed; only flown route is shown


Map Options




Map Legend


Flown Route
Filed Route
Departure Airport
Arrival Airport
Navaid (VOR, NDB)
Fix

Horizontal Profiles

Position Reports

Time Latitude Longitude Heading Altitude Ground
Speed
20-Aug-23 19:22 34.652159 -112.424364 154 5016ft 0kts
20-Aug-23 19:23 34.652159 -112.424364 154 5016ft 0kts
20-Aug-23 19:24 34.652159 -112.424364 154 5016ft 0kts
20-Aug-23 19:25 34.652159 -112.424364 154 5016ft 0kts
20-Aug-23 19:26 34.652159 -112.424364 154 5016ft 0kts
20-Aug-23 19:27 34.652159 -112.424364 154 5016ft 0kts
20-Aug-23 19:28 34.652159 -112.424364 154 5016ft 0kts
20-Aug-23 19:29 34.652159 -112.424364 154 5016ft 0kts
20-Aug-23 19:30 34.652159 -112.424364 154 5016ft 0kts
20-Aug-23 19:31 34.652159 -112.424364 154 5016ft 0kts
20-Aug-23 19:32 34.652014 -112.424272 147 5017ft 3kts
20-Aug-23 19:33 34.653624 -112.421867 41 5009ft 18kts
20-Aug-23 19:34 34.657501 -112.417737 41 4987ft 19kts
20-Aug-23 19:35 34.661993 -112.413161 16 4958ft 13kts
20-Aug-23 19:36 34.662691 -112.412141 124 4953ft 0kts
20-Aug-23 19:37 34.662534 -112.411887 128 4955ft 6kts
20-Aug-23 19:37 34.659130 -112.414443 222 4978ft 68kts
20-Aug-23 19:39 34.631992 -112.438624 176 5993ft 117kts
20-Aug-23 19:40 34.616818 -112.413072 46 6401ft 114kts
20-Aug-23 19:41 34.642562 -112.385995 36 7037ft 133kts
20-Aug-23 19:42 34.676957 -112.354478 38 7626ft 169kts
20-Aug-23 19:42 34.703960 -112.323844 46 8559ft 160kts
20-Aug-23 19:43 34.732166 -112.283909 52 9353ft 163kts
20-Aug-23 19:45 34.755129 -112.225418 69 10312ft 165kts
20-Aug-23 19:46 34.771466 -112.171925 73 11101ft 170kts
20-Aug-23 19:46 34.782550 -112.123607 78 11338ft 190kts
20-Aug-23 19:47 34.795282 -112.059685 74 11447ft 195kts
20-Aug-23 19:48 34.809461 -111.995123 75 11495ft 199kts
20-Aug-23 19:49 34.823677 -111.930673 75 11490ft 195kts
20-Aug-23 19:51 34.840021 -111.856210 74 11493ft 194kts
20-Aug-23 19:51 34.847813 -111.820855 74 11493ft 195kts
20-Aug-23 19:52 34.861784 -111.757281 75 11493ft 195kts
20-Aug-23 19:53 34.875723 -111.693949 74 11493ft 196kts
20-Aug-23 19:54 34.889902 -111.629320 75 11492ft 196kts
20-Aug-23 19:55 34.904033 -111.565090 74 11497ft 195kts
20-Aug-23 19:56 34.917699 -111.500235 79 11495ft 198kts
20-Aug-23 19:57 34.930489 -111.435360 76 11491ft 196kts
20-Aug-23 19:58 34.943683 -111.370932 76 11495ft 197kts
20-Aug-23 19:59 34.957015 -111.305905 76 11495ft 197kts
20-Aug-23 20:00 34.970282 -111.241084 76 11494ft 197kts
20-Aug-23 20:01 34.983532 -111.176414 76 11493ft 195kts
20-Aug-23 20:02 34.996626 -111.112543 76 11493ft 194kts
20-Aug-23 20:03 35.009678 -111.048796 76 11490ft 193kts
20-Aug-23 20:04 35.022751 -110.984935 76 11492ft 194kts
20-Aug-23 20:05 35.035849 -110.920907 75 11492ft 194kts
20-Aug-23 20:06 35.048903 -110.857054 75 11492ft 194kts
20-Aug-23 20:07 35.061976 -110.793040 76 11493ft 194kts
20-Aug-23 20:08 35.092840 -110.740787 47 11493ft 192kts
20-Aug-23 20:09 35.130032 -110.693781 45 11493ft 192kts
20-Aug-23 20:10 35.164011 -110.643072 53 11494ft 192kts
20-Aug-23 20:11 35.193483 -110.588727 51 11495ft 192kts
20-Aug-23 20:12 35.226375 -110.537242 51 11496ft 193kts
20-Aug-23 20:13 35.259458 -110.485392 51 11496ft 193kts
20-Aug-23 20:14 35.292478 -110.433553 51 11496ft 192kts
20-Aug-23 20:15 35.325475 -110.381760 51 11495ft 192kts
20-Aug-23 20:16 35.358374 -110.330076 51 11495ft 192kts
20-Aug-23 20:17 35.391263 -110.278331 51 11495ft 192kts
20-Aug-23 20:18 35.424179 -110.226523 51 11495ft 193kts
20-Aug-23 20:19 35.457123 -110.174591 51 11494ft 193kts
20-Aug-23 20:20 35.490032 -110.122689 51 11498ft 192kts
20-Aug-23 20:21 35.522961 -110.070720 51 11495ft 193kts
20-Aug-23 20:22 35.555976 -110.018560 52 11495ft 193kts
20-Aug-23 20:23 35.588883 -109.966544 51 11495ft 192kts
20-Aug-23 20:24 35.621743 -109.914601 52 11493ft 192kts
20-Aug-23 20:25 35.654537 -109.862657 51 11495ft 192kts
20-Aug-23 20:26 35.687232 -109.810832 51 11493ft 192kts
20-Aug-23 20:27 35.720082 -109.758691 52 11494ft 193kts
20-Aug-23 20:28 35.752980 -109.706466 52 11494ft 192kts
20-Aug-23 20:29 35.785929 -109.654397 51 11495ft 192kts
20-Aug-23 20:30 35.818724 -109.601999 52 11496ft 193kts
20-Aug-23 20:31 35.851436 -109.549973 52 11497ft 192kts
20-Aug-23 20:32 35.884216 -109.497782 52 11493ft 192kts
20-Aug-23 20:33 35.916957 -109.445570 52 11496ft 192kts
20-Aug-23 20:34 35.951897 -109.395876 33 11491ft 192kts
20-Aug-23 20:35 35.986476 -109.346129 52 11497ft 193kts
20-Aug-23 20:36 36.019026 -109.293401 52 11497ft 192kts
20-Aug-23 20:37 36.051441 -109.240741 52 11496ft 193kts
20-Aug-23 20:38 36.083970 -109.187942 52 11497ft 192kts
20-Aug-23 20:39 36.116548 -109.135030 52 11500ft 194kts
20-Aug-23 20:40 36.149183 -109.081827 52 11500ft 195kts
20-Aug-23 20:41 36.181973 -109.028410 52 11500ft 196kts
20-Aug-23 20:42 36.214924 -108.974853 52 11500ft 195kts
20-Aug-23 20:43 36.247875 -108.920932 52 11496ft 195kts
20-Aug-23 20:44 36.280775 -108.867265 52 11356ft 199kts
20-Aug-23 20:45 36.314697 -108.811829 52 10867ft 198kts
20-Aug-23 20:46 36.347670 -108.757880 52 10363ft 196kts
20-Aug-23 20:47 36.380367 -108.704370 52 9860ft 193kts
20-Aug-23 20:48 36.412941 -108.651034 52 9361ft 193kts
20-Aug-23 20:49 36.444306 -108.599595 52 8877ft 193kts
20-Aug-23 20:50 36.476917 -108.546132 52 8381ft 193kts
20-Aug-23 20:51 36.509387 -108.492695 52 7882ft 193kts
20-Aug-23 20:52 36.541571 -108.439308 53 7507ft 188kts
20-Aug-23 20:53 36.571650 -108.389029 53 7493ft 179kts
20-Aug-23 20:54 36.601427 -108.339360 53 7494ft 180kts
20-Aug-23 20:55 36.630747 -108.289970 54 7477ft 171kts
20-Aug-23 20:56 36.663251 -108.255965 353 7639ft 149kts
20-Aug-23 20:57 36.697883 -108.273752 331 7167ft 117kts
20-Aug-23 20:58 36.726006 -108.295490 329 6738ft 127kts
20-Aug-23 20:59 36.740330 -108.270710 91 6194ft 117kts
20-Aug-23 21:00 36.741194 -108.236171 87 5499ft 79kts
20-Aug-23 21:01 36.740657 -108.226295 178 5493ft 0kts
20-Aug-23 21:02 36.739736 -108.225959 88 5496ft 0kts

Navigation Log

Ident Type
Flight plan parsing failed, navigation log unavailable